createdAt,value
2023-03-20T00:00:00.665Z,85
2023-03-20T00:05:00.878Z,85
2023-03-20T00:10:00.781Z,85
2023-03-20T00:15:00.692Z,85
2023-03-20T00:20:00.700Z,85
2023-03-20T00:25:00.633Z,85
2023-03-20T00:30:00.574Z,85
2023-03-20T00:35:00.713Z,85
2023-03-20T00:40:00.673Z,86
2023-03-20T00:45:00.844Z,86
2023-03-20T00:50:00.617Z,86
2023-03-20T00:55:00.816Z,86
2023-03-20T01:00:00.661Z,86
2023-03-20T01:05:00.714Z,86
2023-03-20T01:10:00.723Z,86
2023-03-20T01:15:00.697Z,86
2023-03-20T01:20:00.698Z,86
2023-03-20T01:25:00.747Z,86
2023-03-20T01:30:00.725Z,86
2023-03-20T01:35:00.679Z,86
2023-03-20T01:40:00.647Z,86
2023-03-20T01:45:00.799Z,86
2023-03-20T01:50:01.188Z,86
2023-03-20T01:55:00.694Z,86
2023-03-20T02:00:00.725Z,86
2023-03-20T02:05:00.779Z,86
2023-03-20T02:10:00.678Z,85
2023-03-20T02:15:00.752Z,85
2023-03-20T02:20:00.966Z,85
2023-03-20T02:25:00.707Z,84
2023-03-20T02:30:00.589Z,85
2023-03-20T02:35:00.635Z,84
2023-03-20T02:40:00.691Z,83
2023-03-20T02:45:00.859Z,83
2023-03-20T02:50:00.735Z,83
2023-03-20T02:55:00.636Z,83
2023-03-20T03:00:00.893Z,83
2023-03-20T03:05:00.543Z,83
2023-03-20T03:10:00.704Z,83
2023-03-20T03:15:00.798Z,83
2023-03-20T03:20:00.692Z,82
2023-03-20T03:25:00.714Z,82
2023-03-20T03:30:00.682Z,81
2023-03-20T03:35:00.730Z,81
2023-03-20T03:40:00.845Z,81
2023-03-20T03:45:00.787Z,81
2023-03-20T03:50:00.742Z,81
2023-03-20T03:55:00.691Z,81
2023-03-20T04:00:01.281Z,81
2023-03-20T04:05:00.742Z,81
2023-03-20T04:10:01.071Z,81
2023-03-20T04:15:03.007Z,81
2023-03-20T04:20:00.689Z,81
2023-03-20T04:25:00.927Z,81
2023-03-20T04:30:00.683Z,81
2023-03-20T04:35:00.587Z,81
2023-03-20T04:40:00.939Z,81
2023-03-20T04:45:00.739Z,81
2023-03-20T04:50:00.659Z,81
2023-03-20T04:55:00.694Z,81
2023-03-20T05:00:00.822Z,82
2023-03-20T05:05:00.704Z,82
2023-03-20T05:10:00.822Z,82
2023-03-20T05:15:00.808Z,82
2023-03-20T05:20:00.973Z,82
2023-03-20T05:25:00.713Z,81
2023-03-20T05:30:00.629Z,82
2023-03-20T05:35:00.639Z,82
2023-03-20T05:40:00.709Z,82
2023-03-20T05:45:00.741Z,82
2023-03-20T05:50:00.732Z,82
2023-03-20T05:55:00.701Z,82
2023-03-20T06:00:00.885Z,82
2023-03-20T06:05:00.783Z,82
2023-03-20T06:10:00.776Z,82
2023-03-20T06:15:00.813Z,82
2023-03-20T06:20:00.676Z,82
2023-03-20T06:25:00.799Z,82
2023-03-20T06:30:00.715Z,82
2023-03-20T06:35:00.696Z,82
2023-03-20T06:40:01.245Z,82
2023-03-20T06:45:00.796Z,82
2023-03-20T06:50:00.753Z,82
2023-03-20T06:55:00.701Z,82
2023-03-20T07:00:00.937Z,81
2023-03-20T07:05:00.806Z,81
2023-03-20T07:10:00.753Z,81
2023-03-20T07:15:00.767Z,80
2023-03-20T07:20:00.691Z,80
2023-03-20T07:25:00.731Z,80
2023-03-20T07:30:00.590Z,80
2023-03-20T07:35:00.727Z,80
2023-03-20T07:40:01.004Z,80
2023-03-20T07:45:00.815Z,79
2023-03-20T07:50:00.753Z,79
2023-03-20T07:55:00.758Z,80
2023-03-20T08:00:02.060Z,80
2023-03-20T08:05:00.725Z,80
2023-03-20T08:10:00.771Z,81
2023-03-20T08:15:00.739Z,81
2023-03-20T08:20:00.744Z,81
2023-03-20T08:25:01.058Z,81
2023-03-20T08:30:00.735Z,82
2023-03-20T08:35:00.758Z,81
2023-03-20T08:40:00.725Z,82
2023-03-20T08:45:00.727Z,82
2023-03-20T08:50:00.742Z,82
2023-03-20T08:55:00.737Z,82
2023-03-20T09:00:00.817Z,81
2023-03-20T09:05:00.741Z,81
2023-03-20T09:10:00.845Z,80
2023-03-20T09:15:01.089Z,81
2023-03-20T09:20:00.693Z,80
2023-03-20T09:25:00.699Z,79
2023-03-20T09:30:00.830Z,78
2023-03-20T09:35:00.948Z,77
2023-03-20T09:40:00.868Z,76
2023-03-20T09:45:00.751Z,75
2023-03-20T09:50:00.681Z,73
2023-03-20T09:55:00.761Z,73
2023-03-20T10:00:00.793Z,73
2023-03-20T10:05:00.842Z,73
2023-03-20T10:10:00.802Z,73
2023-03-20T10:15:00.590Z,74
2023-03-20T10:20:00.737Z,74
2023-03-20T10:25:00.760Z,75
2023-03-20T10:30:00.783Z,76
2023-03-20T10:35:00.731Z,76
2023-03-20T10:40:00.764Z,76
2023-03-20T10:45:00.734Z,77
2023-03-20T10:50:00.750Z,77
2023-03-20T10:55:00.753Z,77
2023-03-20T11:00:00.807Z,76
2023-03-20T11:05:00.683Z,75
2023-03-20T11:10:00.734Z,76
2023-03-20T11:15:01.144Z,75
2023-03-20T11:20:00.816Z,75
2023-03-20T11:25:00.842Z,74
2023-03-20T11:30:00.783Z,75
2023-03-20T11:35:00.668Z,75
2023-03-20T11:40:00.772Z,75
2023-03-20T11:45:00.752Z,77
2023-03-20T11:50:00.702Z,76
2023-03-20T11:55:00.742Z,77
2023-03-20T12:00:00.701Z,78
2023-03-20T12:05:01.135Z,79
2023-03-20T12:10:00.744Z,77
2023-03-20T12:15:00.745Z,79
2023-03-20T12:20:00.768Z,80
2023-03-20T12:25:00.909Z,81
2023-03-20T12:30:00.720Z,83
2023-03-20T12:35:00.726Z,82
2023-03-20T12:40:00.988Z,82
2023-03-20T12:45:00.708Z,82
2023-03-20T12:50:00.724Z,82
2023-03-20T12:55:00.709Z,83
2023-03-20T13:00:00.887Z,83
2023-03-20T13:05:00.744Z,84
2023-03-20T13:10:00.747Z,84
2023-03-20T13:15:00.920Z,84
2023-03-20T13:20:00.685Z,85
2023-03-20T13:25:00.617Z,86
2023-03-20T13:30:00.742Z,86
2023-03-20T13:35:00.690Z,87
2023-03-20T13:40:01.268Z,88
2023-03-20T13:45:00.588Z,88
2023-03-20T13:50:00.690Z,88
2023-03-20T13:55:00.797Z,88
2023-03-20T14:00:00.754Z,88
2023-03-20T14:05:00.745Z,88
2023-03-20T14:10:00.711Z,88
2023-03-20T14:15:00.746Z,88
2023-03-20T14:20:00.776Z,88
2023-03-20T14:25:00.747Z,88
2023-03-20T14:30:00.810Z,88
2023-03-20T14:35:00.949Z,88
2023-03-20T14:40:00.753Z,89
2023-03-20T14:45:00.817Z,88
2023-03-20T14:50:00.975Z,89
2023-03-20T14:55:00.730Z,90
2023-03-20T15:00:00.738Z,90
2023-03-20T15:05:00.718Z,90
2023-03-20T15:10:00.727Z,91
2023-03-20T15:15:00.703Z,91
2023-03-20T15:20:00.762Z,91
2023-03-20T15:25:00.658Z,92
2023-03-20T15:30:00.819Z,92
2023-03-20T15:35:00.870Z,93
2023-03-20T15:40:00.649Z,93
2023-03-20T15:45:00.666Z,93
2023-03-20T15:50:01.885Z,93
2023-03-20T15:55:00.694Z,93
2023-03-20T16:00:01.163Z,93
2023-03-20T16:05:00.607Z,93
2023-03-20T16:10:00.868Z,93
2023-03-20T16:15:00.674Z,93
2023-03-20T16:20:01.980Z,93
2023-03-20T16:25:00.826Z,94
2023-03-20T16:30:00.597Z,94
2023-03-20T16:35:00.676Z,94
2023-03-20T16:40:00.769Z,94
2023-03-20T16:45:00.852Z,93
2023-03-20T16:50:00.771Z,93
2023-03-20T16:55:00.703Z,93
2023-03-20T17:00:00.881Z,94
2023-03-20T17:05:00.928Z,94
2023-03-20T17:10:00.856Z,94
2023-03-20T17:15:00.805Z,94
2023-03-20T17:20:00.664Z,94
2023-03-20T17:25:00.774Z,94
2023-03-20T17:30:00.741Z,94
2023-03-20T17:35:00.767Z,94
2023-03-20T17:40:00.862Z,94
2023-03-20T17:45:00.611Z,94
2023-03-20T17:50:00.774Z,94
2023-03-20T17:55:00.694Z,94
2023-03-20T18:00:00.655Z,94
2023-03-20T18:05:00.621Z,94
2023-03-20T18:10:00.697Z,94
2023-03-20T18:15:00.782Z,94
2023-03-20T18:20:00.733Z,94
2023-03-20T18:25:00.598Z,94
2023-03-20T18:30:00.698Z,94
2023-03-20T18:35:00.726Z,94
2023-03-20T18:40:00.709Z,94
2023-03-20T18:45:00.701Z,94
2023-03-20T18:50:00.709Z,94
2023-03-20T18:55:00.725Z,94
2023-03-20T19:00:00.684Z,95
2023-03-20T19:05:00.653Z,95
2023-03-20T19:10:00.732Z,95
2023-03-20T19:15:00.686Z,95
2023-03-20T19:20:00.717Z,95
2023-03-20T19:25:02.310Z,95
2023-03-20T19:30:00.728Z,95
2023-03-20T19:35:46.979Z,95
2023-03-20T19:40:00.727Z,95
2023-03-20T19:45:01.106Z,95
2023-03-20T19:50:01.130Z,95
2023-03-20T19:55:03.490Z,95
2023-03-20T20:00:50.697Z,95
2023-03-20T20:05:00.674Z,95
2023-03-20T20:10:00.712Z,95
2023-03-20T20:15:00.683Z,95
2023-03-20T20:20:00.765Z,95
2023-03-20T20:25:00.743Z,96
2023-03-20T20:30:00.743Z,96
2023-03-20T20:35:47.463Z,96
2023-03-20T20:40:00.756Z,96
2023-03-20T20:45:00.653Z,96
2023-03-20T20:50:00.675Z,96
2023-03-20T20:55:14.447Z,96
2023-03-20T21:00:01.353Z,96
2023-03-20T21:05:00.683Z,96
2023-03-20T21:10:00.944Z,96
2023-03-20T21:15:00.707Z,96
2023-03-20T21:20:00.661Z,96
2023-03-20T21:25:13.381Z,96
2023-03-20T21:30:00.702Z,96
2023-03-20T21:35:00.719Z,96
2023-03-20T21:40:00.798Z,96
2023-03-20T22:05:41.887Z,96
2023-03-20T22:20:56.377Z,96
2023-03-20T22:25:53.063Z,96
2023-03-20T22:36:02.728Z,96
2023-03-20T22:45:03.340Z,96
2023-03-20T22:50:00.726Z,96
2023-03-20T22:55:00.707Z,96
2023-03-20T23:00:00.909Z,96
2023-03-20T23:05:00.822Z,96
2023-03-20T23:10:01.560Z,96
2023-03-20T23:15:00.649Z,96
2023-03-20T23:20:10.986Z,96
2023-03-20T23:25:11.527Z,96
2023-03-20T23:30:00.674Z,96
2023-03-20T23:35:00.806Z,96
2023-03-20T23:40:00.684Z,96
2023-03-20T23:45:13.266Z,95
2023-03-20T23:50:00.693Z,95
2023-03-20T23:55:00.741Z,95
